RYR5939 LDDU-LFOB
Flight info
| Callsign | RYR5939 |
|---|---|
| Flight time | 2h 25m |
| Altitude | 38000 |
| Route | MADOS DCT SIPAL DCT LABIN DCT RONAG L613 HOC/N0325F180 Y112 RLP |
| Aircraft | B38M/M-SDE1FGHILORVWXY/HB1 |
Departure
| Time | 2026-04-22 17:59 |
|---|---|
| Airport | Dubrovnik Ruđer Bošković Airport (LDDU) |
Arrival
| Time | 2026-04-22 20:25 |
|---|---|
| Airport | Beauvais-Tillé airport (LFOB) |
| Time | Latitude | Longitude | Altitude | Speed | Heading |
|---|---|---|---|---|---|
| 2026-04-22 17:25 | 42.56192 | 18.26040 | 536 ft | 0 kts | 208° |
| 2026-04-22 17:49 | 42.56196 | 18.26043 | 536 ft | 2 kts | 208° |
| 2026-04-22 17:49 | 42.56206 | 18.26049 | 536 ft | 2 kts | 209° |
| 2026-04-22 17:49 | 42.56220 | 18.26060 | 536 ft | 2 kts | 210° |
| 2026-04-22 17:49 | 42.56234 | 18.26072 | 536 ft | 2 kts | 218° |
| 2026-04-22 17:50 | 42.56240 | 18.26091 | 536 ft | 2 kts | 297° |
| 2026-04-22 17:50 | 42.56232 | 18.26110 | 536 ft | 2 kts | 297° |
| 2026-04-22 17:50 | 42.56225 | 18.26129 | 536 ft | 1 kts | 298° |
| 2026-04-22 17:50 | 42.56223 | 18.26133 | 536 ft | 0 kts | 299° |
| 2026-04-22 17:54 | 42.56229 | 18.26119 | 536 ft | 5 kts | 299° |
| 2026-04-22 17:54 | 42.56264 | 18.26031 | 536 ft | 17 kts | 298° |
| 2026-04-22 17:54 | 42.56335 | 18.25850 | 536 ft | 26 kts | 298° |
| 2026-04-22 17:55 | 42.56418 | 18.25643 | 536 ft | 23 kts | 298° |
| 2026-04-22 17:55 | 42.56499 | 18.25446 | 536 ft | 25 kts | 300° |
| 2026-04-22 17:55 | 42.56566 | 18.25273 | 536 ft | 17 kts | 299° |
| 2026-04-22 17:55 | 42.56625 | 18.25125 | 536 ft | 19 kts | 298° |
| 2026-04-22 17:56 | 42.56689 | 18.24966 | 536 ft | 18 kts | 298° |
| 2026-04-22 17:56 | 42.56749 | 18.24814 | 536 ft | 16 kts | 297° |
| 2026-04-22 17:56 | 42.56790 | 18.24714 | 536 ft | 2 kts | 310° |
| 2026-04-22 17:56 | 42.56792 | 18.24711 | 536 ft | 0 kts | 310° |
| 2026-04-22 17:58 | 42.56794 | 18.24708 | 536 ft | 1 kts | 315° |
| 2026-04-22 17:58 | 42.56821 | 18.24684 | 536 ft | 10 kts | 335° |
| 2026-04-22 17:58 | 42.56914 | 18.24711 | 536 ft | 17 kts | 45° |
| 2026-04-22 17:58 | 42.56930 | 18.24830 | 535 ft | 10 kts | 118° |
| 2026-04-22 17:59 | 42.56873 | 18.24974 | 535 ft | 43 kts | 118° |
| 2026-04-22 17:59 | 42.56603 | 18.25658 | 538 ft | 118 kts | 120° |
| 2026-04-22 17:59 | 42.56104 | 18.26869 | 579 ft | 171 kts | 114° |
| 2026-04-22 17:59 | 42.55434 | 18.28320 | 1147 ft | 188 kts | 115° |
| 2026-04-22 18:00 | 42.54990 | 18.29361 | 1656 ft | 196 kts | 115° |
| 2026-04-22 18:00 | 42.54067 | 18.31685 | 2548 ft | 229 kts | 115° |
| 2026-04-22 18:00 | 42.53147 | 18.33587 | 3276 ft | 254 kts | 127° |
| 2026-04-22 18:00 | 42.51666 | 18.35108 | 3935 ft | 286 kts | 156° |
| 2026-04-22 18:01 | 42.49680 | 18.35458 | 5061 ft | 291 kts | 188° |
| 2026-04-22 18:01 | 42.47918 | 18.34352 | 6486 ft | 277 kts | 225° |
| 2026-04-22 18:01 | 42.46678 | 18.32353 | 7488 ft | 281 kts | 232° |
| 2026-04-22 18:01 | 42.45067 | 18.30838 | 8534 ft | 288 kts | 199° |
| 2026-04-22 18:02 | 42.43083 | 18.30294 | 9552 ft | 294 kts | 193° |
| 2026-04-22 18:02 | 42.41090 | 18.29633 | 10499 ft | 298 kts | 197° |
| 2026-04-22 18:02 | 42.39032 | 18.28864 | 11051 ft | 316 kts | 199° |
| 2026-04-22 18:02 | 42.36873 | 18.28006 | 11681 ft | 329 kts | 199° |
| 2026-04-22 18:03 | 42.34666 | 18.27109 | 12560 ft | 332 kts | 200° |
| 2026-04-22 18:03 | 42.32442 | 18.26191 | 13410 ft | 337 kts | 200° |
| 2026-04-22 18:03 | 42.30185 | 18.25251 | 14235 ft | 340 kts | 201° |
| 2026-04-22 18:03 | 42.27911 | 18.24300 | 15000 ft | 344 kts | 201° |
| 2026-04-22 18:04 | 42.25671 | 18.23165 | 15715 ft | 343 kts | 213° |
| 2026-04-22 18:04 | 42.23825 | 18.21200 | 16439 ft | 337 kts | 234° |
| 2026-04-22 18:04 | 42.22670 | 18.18502 | 17120 ft | 331 kts | 255° |
| 2026-04-22 18:04 | 42.22268 | 18.15478 | 17807 ft | 328 kts | 272° |
| 2026-04-22 18:05 | 42.22574 | 18.12451 | 18482 ft | 327 kts | 289° |
| 2026-04-22 18:05 | 42.23558 | 18.09700 | 19095 ft | 327 kts | 305° |
| 2026-04-22 18:05 | 42.25016 | 18.07347 | 19729 ft | 328 kts | 307° |
| 2026-04-22 18:05 | 42.26431 | 18.04919 | 20341 ft | 329 kts | 307° |
| 2026-04-22 18:06 | 42.27857 | 18.02494 | 20973 ft | 330 kts | 307° |
| 2026-04-22 18:06 | 42.29293 | 18.00067 | 21595 ft | 332 kts | 307° |
| 2026-04-22 18:06 | 42.30739 | 17.97631 | 22222 ft | 333 kts | 307° |
| 2026-04-22 18:06 | 42.32190 | 17.95189 | 22817 ft | 335 kts | 307° |
| 2026-04-22 18:07 | 42.33651 | 17.92730 | 23431 ft | 336 kts | 307° |
| 2026-04-22 18:07 | 42.35118 | 17.90258 | 23949 ft | 338 kts | 307° |
| 2026-04-22 18:07 | 42.36590 | 17.87777 | 24455 ft | 339 kts | 307° |
| 2026-04-22 18:07 | 42.38067 | 17.85285 | 24966 ft | 340 kts | 307° |
| 2026-04-22 18:08 | 42.39552 | 17.82778 | 25471 ft | 341 kts | 307° |
| 2026-04-22 18:08 | 42.41039 | 17.80266 | 25958 ft | 343 kts | 306° |
| 2026-04-22 18:08 | 42.42531 | 17.77743 | 26465 ft | 344 kts | 306° |
| 2026-04-22 18:08 | 42.44029 | 17.75208 | 26965 ft | 346 kts | 306° |
| 2026-04-22 18:09 | 42.45540 | 17.72650 | 27328 ft | 350 kts | 307° |
| 2026-04-22 18:09 | 42.47062 | 17.70068 | 27798 ft | 351 kts | 306° |
| 2026-04-22 18:09 | 42.48588 | 17.67478 | 28242 ft | 353 kts | 306° |
| 2026-04-22 18:09 | 42.50123 | 17.64871 | 28684 ft | 354 kts | 306° |
| 2026-04-22 18:10 | 42.51665 | 17.62250 | 29126 ft | 356 kts | 306° |
| 2026-04-22 18:10 | 42.53209 | 17.59622 | 29545 ft | 358 kts | 306° |
| 2026-04-22 18:10 | 42.54741 | 17.57013 | 29952 ft | 359 kts | 306° |
| 2026-04-22 18:10 | 42.56303 | 17.54353 | 30312 ft | 361 kts | 306° |
| 2026-04-22 18:11 | 42.57874 | 17.51672 | 30611 ft | 364 kts | 306° |
| 2026-04-22 18:11 | 42.59455 | 17.48973 | 30883 ft | 367 kts | 306° |
| 2026-04-22 18:11 | 42.61046 | 17.46254 | 31161 ft | 369 kts | 306° |
| 2026-04-22 18:11 | 42.62650 | 17.43511 | 31436 ft | 372 kts | 306° |
| 2026-04-22 18:12 | 42.64265 | 17.40745 | 31711 ft | 375 kts | 306° |
| 2026-04-22 18:12 | 42.65887 | 17.37967 | 31993 ft | 377 kts | 306° |
| 2026-04-22 18:12 | 42.66968 | 17.36113 | 32232 ft | 377 kts | 306° |
| 2026-04-22 18:12 | 42.69144 | 17.32377 | 32714 ft | 378 kts | 306° |
| 2026-04-22 18:13 | 42.70780 | 17.29565 | 33089 ft | 378 kts | 306° |
| 2026-04-22 18:13 | 42.72417 | 17.26750 | 33307 ft | 382 kts | 306° |
| 2026-04-22 18:13 | 42.74069 | 17.23904 | 33593 ft | 384 kts | 306° |
| 2026-04-22 18:13 | 42.75722 | 17.21054 | 33932 ft | 384 kts | 306° |
| 2026-04-22 18:14 | 42.77378 | 17.18198 | 34237 ft | 385 kts | 306° |
| 2026-04-22 18:14 | 42.79036 | 17.15336 | 34501 ft | 386 kts | 307° |
| 2026-04-22 18:14 | 42.80699 | 17.12462 | 34756 ft | 387 kts | 307° |
| 2026-04-22 18:14 | 42.82363 | 17.09582 | 35014 ft | 387 kts | 307° |
| 2026-04-22 18:15 | 42.84032 | 17.06691 | 35273 ft | 388 kts | 307° |
| 2026-04-22 18:15 | 42.85701 | 17.03798 | 35521 ft | 389 kts | 307° |
| 2026-04-22 18:15 | 42.87375 | 17.00893 | 35766 ft | 390 kts | 307° |
| 2026-04-22 18:15 | 42.89055 | 16.97976 | 36020 ft | 391 kts | 307° |
| 2026-04-22 18:16 | 42.90735 | 16.95054 | 36267 ft | 392 kts | 307° |
| 2026-04-22 18:16 | 42.92418 | 16.92124 | 36497 ft | 393 kts | 307° |
| 2026-04-22 18:16 | 42.94106 | 16.89184 | 36718 ft | 394 kts | 307° |
| 2026-04-22 18:16 | 42.95797 | 16.86235 | 36965 ft | 395 kts | 307° |
| 2026-04-22 18:17 | 42.97490 | 16.83280 | 37225 ft | 395 kts | 308° |
| 2026-04-22 18:17 | 42.99187 | 16.80316 | 37396 ft | 397 kts | 308° |
| 2026-04-22 18:17 | 43.00890 | 16.77336 | 37575 ft | 398 kts | 308° |
| 2026-04-22 18:17 | 43.02597 | 16.74346 | 37800 ft | 399 kts | 308° |
| 2026-04-22 18:18 | 43.04306 | 16.71352 | 38001 ft | 400 kts | 308° |
| 2026-04-22 18:18 | 43.07729 | 16.65343 | 38052 ft | 400 kts | 308° |
| 2026-04-22 18:19 | 43.11108 | 16.59399 | 38070 ft | 399 kts | 308° |
| 2026-04-22 18:19 | 43.14515 | 16.53394 | 38067 ft | 399 kts | 308° |
| 2026-04-22 18:20 | 43.17916 | 16.47389 | 38073 ft | 399 kts | 308° |
| 2026-04-22 18:20 | 43.21316 | 16.41370 | 38075 ft | 399 kts | 308° |
| 2026-04-22 18:21 | 43.24711 | 16.35352 | 38085 ft | 399 kts | 308° |
| 2026-04-22 18:21 | 43.28113 | 16.29306 | 38090 ft | 401 kts | 308° |
| 2026-04-22 18:22 | 43.31517 | 16.23244 | 38092 ft | 401 kts | 308° |
| 2026-04-22 18:22 | 43.34916 | 16.17181 | 38095 ft | 401 kts | 308° |
| 2026-04-22 18:23 | 43.38313 | 16.11107 | 38097 ft | 401 kts | 308° |
| 2026-04-22 18:23 | 43.41704 | 16.05031 | 38097 ft | 401 kts | 308° |
| 2026-04-22 18:24 | 43.46786 | 15.95903 | 38092 ft | 401 kts | 308° |
| 2026-04-22 18:25 | 43.51866 | 15.86748 | 38101 ft | 402 kts | 308° |
| 2026-04-22 18:25 | 43.55260 | 15.80618 | 38101 ft | 403 kts | 308° |
| 2026-04-22 18:26 | 43.59666 | 15.72638 | 38105 ft | 402 kts | 308° |
| 2026-04-22 18:26 | 43.63483 | 15.65708 | 38107 ft | 402 kts | 308° |
| 2026-04-22 18:27 | 43.66864 | 15.59556 | 38111 ft | 402 kts | 308° |
| 2026-04-22 18:27 | 43.70242 | 15.53396 | 38113 ft | 402 kts | 308° |
| 2026-04-22 18:28 | 43.73616 | 15.47230 | 38122 ft | 402 kts | 308° |
| 2026-04-22 18:28 | 43.76985 | 15.41062 | 38122 ft | 402 kts | 307° |
| 2026-04-22 18:29 | 43.80351 | 15.34885 | 38125 ft | 402 kts | 307° |
| 2026-04-22 18:29 | 43.83712 | 15.28705 | 38109 ft | 402 kts | 307° |
| 2026-04-22 18:30 | 43.88740 | 15.19433 | 38126 ft | 401 kts | 307° |
| 2026-04-22 18:31 | 43.92088 | 15.13245 | 38137 ft | 401 kts | 307° |
| 2026-04-22 18:31 | 43.95431 | 15.07052 | 38140 ft | 401 kts | 307° |
| 2026-04-22 18:32 | 43.98208 | 15.01896 | 38134 ft | 401 kts | 307° |
| 2026-04-22 18:32 | 44.01548 | 14.95685 | 38149 ft | 402 kts | 307° |
| 2026-04-22 18:33 | 44.04910 | 14.89419 | 38146 ft | 406 kts | 307° |
| 2026-04-22 18:33 | 44.08285 | 14.83114 | 38153 ft | 406 kts | 307° |
| 2026-04-22 18:34 | 44.11656 | 14.76803 | 38148 ft | 406 kts | 307° |
| 2026-04-22 18:34 | 44.15023 | 14.70488 | 38152 ft | 406 kts | 307° |
| 2026-04-22 18:35 | 44.18386 | 14.64164 | 38155 ft | 406 kts | 307° |
| 2026-04-22 18:35 | 44.21747 | 14.57832 | 38151 ft | 406 kts | 307° |
| 2026-04-22 18:36 | 44.25103 | 14.51495 | 38151 ft | 406 kts | 307° |
| 2026-04-22 18:36 | 44.28465 | 14.45133 | 38156 ft | 408 kts | 307° |
| 2026-04-22 18:37 | 44.31841 | 14.38730 | 38158 ft | 410 kts | 307° |
| 2026-04-22 18:37 | 44.35220 | 14.32308 | 38154 ft | 410 kts | 307° |
| 2026-04-22 18:38 | 44.38591 | 14.25885 | 38158 ft | 409 kts | 307° |
| 2026-04-22 18:38 | 44.41956 | 14.19459 | 38165 ft | 409 kts | 307° |
| 2026-04-22 18:39 | 44.46996 | 14.09810 | 38169 ft | 409 kts | 307° |
| 2026-04-22 18:39 | 44.50350 | 14.03371 | 38169 ft | 409 kts | 307° |
| 2026-04-22 18:40 | 44.53704 | 13.96918 | 38178 ft | 410 kts | 307° |
| 2026-04-22 18:40 | 44.57061 | 13.90443 | 38178 ft | 411 kts | 307° |
| 2026-04-22 18:41 | 44.60419 | 13.83953 | 38179 ft | 411 kts | 307° |
| 2026-04-22 18:41 | 44.63772 | 13.77457 | 38181 ft | 411 kts | 307° |
| 2026-04-22 18:42 | 44.67124 | 13.70949 | 38159 ft | 411 kts | 307° |
| 2026-04-22 18:42 | 44.70460 | 13.64457 | 38174 ft | 409 kts | 307° |
| 2026-04-22 18:43 | 44.73782 | 13.57977 | 38184 ft | 409 kts | 307° |
| 2026-04-22 18:43 | 44.77081 | 13.51529 | 38183 ft | 409 kts | 307° |
| 2026-04-22 18:44 | 44.80425 | 13.44977 | 38188 ft | 411 kts | 307° |
| 2026-04-22 18:44 | 44.83764 | 13.38422 | 38167 ft | 411 kts | 307° |
| 2026-04-22 18:45 | 44.87089 | 13.31878 | 38184 ft | 410 kts | 307° |
| 2026-04-22 18:45 | 44.90408 | 13.25330 | 38186 ft | 410 kts | 307° |
| 2026-04-22 18:46 | 44.93700 | 13.18821 | 38188 ft | 410 kts | 307° |
| 2026-04-22 18:46 | 44.97011 | 13.12260 | 38190 ft | 410 kts | 307° |
| 2026-04-22 18:47 | 45.00646 | 13.06092 | 38220 ft | 408 kts | 313° |
| 2026-04-22 18:47 | 45.04553 | 13.00174 | 38177 ft | 410 kts | 314° |
| 2026-04-22 18:48 | 45.08454 | 12.94290 | 38187 ft | 414 kts | 314° |
| 2026-04-22 18:48 | 45.12395 | 12.88339 | 38191 ft | 414 kts | 314° |
| 2026-04-22 18:49 | 45.16330 | 12.82384 | 38189 ft | 414 kts | 313° |
| 2026-04-22 18:49 | 45.20261 | 12.76423 | 38185 ft | 413 kts | 314° |
| 2026-04-22 18:50 | 45.24173 | 12.70477 | 38199 ft | 412 kts | 314° |
| 2026-04-22 18:50 | 45.28087 | 12.64515 | 38206 ft | 414 kts | 313° |
| 2026-04-22 18:51 | 45.32031 | 12.58494 | 38192 ft | 417 kts | 313° |
| 2026-04-22 18:51 | 45.35983 | 12.52448 | 38191 ft | 417 kts | 313° |
| 2026-04-22 18:52 | 45.39929 | 12.46399 | 38177 ft | 417 kts | 313° |
| 2026-04-22 18:52 | 45.43868 | 12.40346 | 38181 ft | 416 kts | 313° |
| 2026-04-22 18:53 | 45.47798 | 12.34294 | 38184 ft | 416 kts | 313° |
| 2026-04-22 18:53 | 45.51724 | 12.28234 | 38190 ft | 417 kts | 313° |
| 2026-04-22 18:54 | 45.55672 | 12.22127 | 38182 ft | 419 kts | 313° |
| 2026-04-22 18:54 | 45.59624 | 12.16000 | 38174 ft | 419 kts | 313° |
| 2026-04-22 18:55 | 45.63559 | 12.09886 | 38182 ft | 417 kts | 313° |
| 2026-04-22 18:55 | 45.67485 | 12.03772 | 38183 ft | 417 kts | 313° |
| 2026-04-22 18:56 | 45.71411 | 11.97643 | 38207 ft | 417 kts | 313° |
| 2026-04-22 18:56 | 45.75328 | 11.91517 | 38226 ft | 418 kts | 314° |
| 2026-04-22 18:57 | 45.79253 | 11.85364 | 38210 ft | 418 kts | 314° |
| 2026-04-22 18:57 | 45.83151 | 11.79240 | 38212 ft | 415 kts | 314° |
| 2026-04-22 18:58 | 45.87047 | 11.73104 | 38199 ft | 414 kts | 314° |
| 2026-04-22 18:58 | 45.90923 | 11.66988 | 38232 ft | 415 kts | 314° |
| 2026-04-22 18:59 | 45.94804 | 11.60846 | 38204 ft | 414 kts | 313° |
| 2026-04-22 18:59 | 45.98659 | 11.54735 | 38228 ft | 416 kts | 314° |
| 2026-04-22 19:00 | 46.02541 | 11.48567 | 38218 ft | 416 kts | 314° |
| 2026-04-22 19:00 | 46.06426 | 11.42378 | 38205 ft | 416 kts | 313° |
| 2026-04-22 19:01 | 46.10309 | 11.36182 | 38203 ft | 416 kts | 313° |
| 2026-04-22 19:01 | 46.14185 | 11.29980 | 38175 ft | 417 kts | 313° |
| 2026-04-22 19:02 | 46.18058 | 11.23769 | 38170 ft | 417 kts | 313° |
| 2026-04-22 19:02 | 46.21931 | 11.17545 | 38162 ft | 417 kts | 313° |
| 2026-04-22 19:03 | 46.25806 | 11.11304 | 38168 ft | 417 kts | 313° |
| 2026-04-22 19:03 | 46.29674 | 11.05059 | 38156 ft | 416 kts | 313° |
| 2026-04-22 19:04 | 46.33537 | 10.98806 | 38163 ft | 417 kts | 313° |
| 2026-04-22 19:04 | 46.37272 | 10.92749 | 38150 ft | 417 kts | 313° |
| 2026-04-22 19:05 | 46.41122 | 10.86491 | 38172 ft | 416 kts | 313° |
| 2026-04-22 19:05 | 46.44965 | 10.80230 | 38162 ft | 414 kts | 313° |
| 2026-04-22 19:06 | 46.48805 | 10.73959 | 38163 ft | 418 kts | 313° |
| 2026-04-22 19:07 | 46.54609 | 10.64454 | 38174 ft | 419 kts | 313° |
| 2026-04-22 19:07 | 46.58472 | 10.58107 | 38171 ft | 419 kts | 313° |
| 2026-04-22 19:08 | 46.62332 | 10.51756 | 38161 ft | 419 kts | 313° |
| 2026-04-22 19:08 | 46.66182 | 10.45405 | 38175 ft | 418 kts | 313° |
| 2026-04-22 19:09 | 46.70017 | 10.39066 | 38161 ft | 416 kts | 313° |
| 2026-04-22 19:09 | 46.73203 | 10.33790 | 38180 ft | 420 kts | 313° |
| 2026-04-22 19:10 | 46.77651 | 10.26202 | 38197 ft | 421 kts | 308° |
| 2026-04-22 19:10 | 46.80745 | 10.18930 | 38226 ft | 423 kts | 299° |
| 2026-04-22 19:10 | 46.81793 | 10.14890 | 38114 ft | 427 kts | 286° |
| 2026-04-22 19:11 | 46.82408 | 10.10662 | 38204 ft | 426 kts | 289° |
| 2026-04-22 19:11 | 46.84495 | 10.03078 | 38225 ft | 425 kts | 295° |
| 2026-04-22 19:12 | 46.86737 | 9.95105 | 38192 ft | 423 kts | 295° |
| 2026-04-22 19:12 | 46.88984 | 9.87158 | 38183 ft | 424 kts | 295° |
| 2026-04-22 19:13 | 46.91233 | 9.79189 | 38228 ft | 424 kts | 295° |
| 2026-04-22 19:13 | 46.93474 | 9.71215 | 38211 ft | 423 kts | 295° |
| 2026-04-22 19:14 | 46.95709 | 9.63244 | 38218 ft | 424 kts | 295° |
| 2026-04-22 19:14 | 46.97936 | 9.55269 | 38209 ft | 423 kts | 295° |
| 2026-04-22 19:15 | 46.99800 | 9.48578 | 38222 ft | 424 kts | 295° |
| 2026-04-22 19:15 | 47.02390 | 9.39248 | 38221 ft | 425 kts | 295° |
| 2026-04-22 19:16 | 47.04252 | 9.32520 | 38223 ft | 425 kts | 295° |
| 2026-04-22 19:16 | 47.06463 | 9.24493 | 38206 ft | 424 kts | 295° |
| 2026-04-22 19:17 | 47.08673 | 9.16446 | 38228 ft | 425 kts | 295° |
| 2026-04-22 19:17 | 47.10870 | 9.08399 | 38227 ft | 425 kts | 294° |
| 2026-04-22 19:18 | 47.13067 | 9.00360 | 38222 ft | 424 kts | 294° |
| 2026-04-22 19:18 | 47.15254 | 8.92316 | 38228 ft | 424 kts | 294° |
| 2026-04-22 19:19 | 47.17323 | 8.84274 | 38234 ft | 424 kts | 293° |
| 2026-04-22 19:19 | 47.19405 | 8.76175 | 38235 ft | 424 kts | 293° |
| 2026-04-22 19:20 | 47.21472 | 8.68049 | 38214 ft | 424 kts | 293° |
| 2026-04-22 19:20 | 47.23518 | 8.59956 | 38233 ft | 422 kts | 293° |
| 2026-04-22 19:21 | 47.25560 | 8.51854 | 38231 ft | 422 kts | 293° |
| 2026-04-22 19:21 | 47.27601 | 8.43763 | 38238 ft | 422 kts | 293° |
| 2026-04-22 19:22 | 47.29640 | 8.35647 | 38230 ft | 423 kts | 293° |
| 2026-04-22 19:22 | 47.31676 | 8.27487 | 38215 ft | 424 kts | 292° |
| 2026-04-22 19:23 | 47.33700 | 8.19351 | 38219 ft | 422 kts | 292° |
| 2026-04-22 19:23 | 47.35718 | 8.11205 | 38234 ft | 423 kts | 292° |
| 2026-04-22 19:24 | 47.37734 | 8.03039 | 38227 ft | 422 kts | 292° |
| 2026-04-22 19:24 | 47.39726 | 7.94942 | 38223 ft | 423 kts | 292° |
| 2026-04-22 19:25 | 47.41729 | 7.86766 | 38242 ft | 423 kts | 292° |
| 2026-04-22 19:25 | 47.43731 | 7.78571 | 38217 ft | 423 kts | 292° |
| 2026-04-22 19:26 | 47.45709 | 7.70444 | 38215 ft | 423 kts | 292° |
| 2026-04-22 19:26 | 47.47082 | 7.61971 | 38224 ft | 426 kts | 282° |
| 2026-04-22 19:27 | 47.48034 | 7.53361 | 38216 ft | 427 kts | 282° |
| 2026-04-22 19:27 | 47.48952 | 7.44685 | 38223 ft | 426 kts | 282° |
| 2026-04-22 19:28 | 47.49853 | 7.36010 | 38224 ft | 426 kts | 282° |
| 2026-04-22 19:28 | 47.50746 | 7.27340 | 38214 ft | 426 kts | 282° |
| 2026-04-22 19:29 | 47.51631 | 7.18679 | 38211 ft | 426 kts | 282° |
| 2026-04-22 19:29 | 47.52506 | 7.10056 | 38181 ft | 426 kts | 282° |
| 2026-04-22 19:30 | 47.53229 | 7.02871 | 38190 ft | 424 kts | 282° |
| 2026-04-22 19:30 | 47.54239 | 6.92769 | 38186 ft | 424 kts | 282° |
| 2026-04-22 19:31 | 47.55094 | 6.84138 | 38185 ft | 424 kts | 282° |
| 2026-04-22 19:31 | 47.55942 | 6.75563 | 38185 ft | 423 kts | 283° |
| 2026-04-22 19:31 | 47.56729 | 6.71405 | 38168 ft | 416 kts | 296° |
| 2026-04-22 19:32 | 47.57884 | 6.67478 | 38185 ft | 417 kts | 295° |
| 2026-04-22 19:32 | 47.60142 | 6.59602 | 38209 ft | 413 kts | 296° |
| 2026-04-22 19:33 | 47.62408 | 6.51791 | 38193 ft | 414 kts | 296° |
| 2026-04-22 19:33 | 47.64689 | 6.43911 | 38010 ft | 411 kts | 296° |
| 2026-04-22 19:33 | 47.65803 | 6.40054 | 37739 ft | 401 kts | 296° |
| 2026-04-22 19:34 | 47.66889 | 6.36292 | 37423 ft | 393 kts | 296° |
| 2026-04-22 19:34 | 47.67955 | 6.32588 | 36950 ft | 390 kts | 296° |
| 2026-04-22 19:34 | 47.68937 | 6.28853 | 36378 ft | 391 kts | 289° |
| 2026-04-22 19:34 | 47.69687 | 6.25014 | 35838 ft | 389 kts | 291° |
| 2026-04-22 19:35 | 47.70494 | 6.21199 | 35388 ft | 386 kts | 291° |
| 2026-04-22 19:35 | 47.71313 | 6.17360 | 34947 ft | 382 kts | 291° |
| 2026-04-22 19:35 | 47.72104 | 6.13668 | 34497 ft | 379 kts | 291° |
| 2026-04-22 19:35 | 47.72902 | 6.09943 | 34007 ft | 377 kts | 291° |
| 2026-04-22 19:36 | 47.73695 | 6.06228 | 33462 ft | 375 kts | 291° |
| 2026-04-22 19:36 | 47.74479 | 6.02549 | 33024 ft | 371 kts | 291° |
| 2026-04-22 19:36 | 47.75251 | 5.98919 | 32599 ft | 367 kts | 291° |
| 2026-04-22 19:36 | 47.76017 | 5.95315 | 32179 ft | 364 kts | 291° |
| 2026-04-22 19:37 | 47.76774 | 5.91745 | 31766 ft | 360 kts | 291° |
| 2026-04-22 19:37 | 47.77522 | 5.88211 | 31314 ft | 357 kts | 291° |
| 2026-04-22 19:37 | 47.78263 | 5.84708 | 30933 ft | 352 kts | 291° |
| 2026-04-22 19:37 | 47.78984 | 5.81287 | 30545 ft | 349 kts | 291° |
| 2026-04-22 19:38 | 47.79707 | 5.77856 | 30136 ft | 346 kts | 291° |
| 2026-04-22 19:38 | 47.80424 | 5.74448 | 29691 ft | 342 kts | 291° |
| 2026-04-22 19:38 | 47.81129 | 5.71087 | 29304 ft | 338 kts | 291° |
| 2026-04-22 19:38 | 47.81824 | 5.67772 | 28941 ft | 333 kts | 291° |
| 2026-04-22 19:39 | 47.82512 | 5.64489 | 28573 ft | 330 kts | 291° |
| 2026-04-22 19:39 | 47.83181 | 5.61283 | 28214 ft | 327 kts | 291° |
| 2026-04-22 19:39 | 47.83846 | 5.58056 | 27791 ft | 325 kts | 291° |
| 2026-04-22 19:39 | 47.84507 | 5.54851 | 27456 ft | 322 kts | 291° |
| 2026-04-22 19:40 | 47.85158 | 5.51689 | 27123 ft | 318 kts | 291° |
| 2026-04-22 19:40 | 47.85802 | 5.48556 | 26765 ft | 315 kts | 291° |
| 2026-04-22 19:40 | 47.86439 | 5.45450 | 26453 ft | 315 kts | 291° |
| 2026-04-22 19:40 | 47.87085 | 5.42298 | 26124 ft | 319 kts | 291° |
| 2026-04-22 19:41 | 47.87738 | 5.39107 | 25785 ft | 321 kts | 291° |
| 2026-04-22 19:41 | 47.88390 | 5.35913 | 25449 ft | 322 kts | 291° |
| 2026-04-22 19:41 | 47.89041 | 5.32723 | 25115 ft | 322 kts | 291° |
| 2026-04-22 19:41 | 47.89686 | 5.29555 | 24772 ft | 325 kts | 291° |
| 2026-04-22 19:42 | 47.90349 | 5.26315 | 24418 ft | 325 kts | 292° |
| 2026-04-22 19:42 | 47.91321 | 5.23311 | 24002 ft | 320 kts | 307° |
| 2026-04-22 19:42 | 47.92543 | 5.20550 | 23676 ft | 317 kts | 306° |
| 2026-04-22 19:42 | 47.93723 | 5.17837 | 23311 ft | 314 kts | 306° |
| 2026-04-22 19:43 | 47.96081 | 5.12424 | 22662 ft | 307 kts | 306° |
| 2026-04-22 19:43 | 47.97237 | 5.09767 | 22344 ft | 303 kts | 306° |
| 2026-04-22 19:43 | 47.98381 | 5.07136 | 22014 ft | 300 kts | 306° |
| 2026-04-22 19:44 | 47.99522 | 5.04512 | 21709 ft | 304 kts | 306° |
| 2026-04-22 19:44 | 48.00682 | 5.01838 | 21396 ft | 309 kts | 306° |
| 2026-04-22 19:44 | 48.01839 | 4.99168 | 21081 ft | 311 kts | 306° |
| 2026-04-22 19:44 | 48.03014 | 4.96455 | 20758 ft | 310 kts | 306° |
| 2026-04-22 19:45 | 48.04186 | 4.93746 | 20449 ft | 310 kts | 306° |
| 2026-04-22 19:45 | 48.05357 | 4.91037 | 20119 ft | 309 kts | 306° |
| 2026-04-22 19:45 | 48.06524 | 4.88335 | 19804 ft | 307 kts | 306° |
| 2026-04-22 19:45 | 48.07675 | 4.85667 | 19482 ft | 304 kts | 306° |
| 2026-04-22 19:46 | 48.08804 | 4.83046 | 19168 ft | 302 kts | 306° |
| 2026-04-22 19:46 | 48.09938 | 4.80413 | 18865 ft | 300 kts | 306° |
| 2026-04-22 19:46 | 48.11064 | 4.77795 | 18547 ft | 298 kts | 306° |
| 2026-04-22 19:46 | 48.12184 | 4.75189 | 18193 ft | 296 kts | 306° |
| 2026-04-22 19:47 | 48.13296 | 4.72597 | 17871 ft | 294 kts | 306° |
| 2026-04-22 19:47 | 48.14403 | 4.70016 | 17560 ft | 296 kts | 306° |
| 2026-04-22 19:47 | 48.15148 | 4.68280 | 17335 ft | 300 kts | 306° |
| 2026-04-22 19:47 | 48.16652 | 4.64765 | 16934 ft | 305 kts | 306° |
| 2026-04-22 19:48 | 48.17797 | 4.62088 | 16605 ft | 305 kts | 306° |
| 2026-04-22 19:48 | 48.18940 | 4.59412 | 16294 ft | 302 kts | 306° |
| 2026-04-22 19:48 | 48.20070 | 4.56765 | 15971 ft | 300 kts | 306° |
| 2026-04-22 19:48 | 48.21192 | 4.54134 | 15662 ft | 298 kts | 306° |
| 2026-04-22 19:49 | 48.22291 | 4.51553 | 15356 ft | 296 kts | 306° |
| 2026-04-22 19:49 | 48.23396 | 4.48956 | 15039 ft | 294 kts | 306° |
| 2026-04-22 19:49 | 48.24497 | 4.46366 | 14735 ft | 292 kts | 305° |
| 2026-04-22 19:49 | 48.25583 | 4.43811 | 14430 ft | 290 kts | 305° |
| 2026-04-22 19:50 | 48.26297 | 4.42128 | 14228 ft | 289 kts | 305° |
| 2026-04-22 19:50 | 48.27729 | 4.38750 | 13794 ft | 287 kts | 305° |
| 2026-04-22 19:50 | 48.28801 | 4.36221 | 13458 ft | 286 kts | 305° |
| 2026-04-22 19:50 | 48.29863 | 4.33710 | 13145 ft | 284 kts | 305° |
| 2026-04-22 19:51 | 48.30924 | 4.31204 | 12841 ft | 284 kts | 305° |
| 2026-04-22 19:51 | 48.31994 | 4.28672 | 12552 ft | 289 kts | 305° |
| 2026-04-22 19:51 | 48.33080 | 4.26110 | 12238 ft | 292 kts | 306° |
| 2026-04-22 19:51 | 48.34470 | 4.23975 | 11936 ft | 286 kts | 330° |
| 2026-04-22 19:52 | 48.36196 | 4.22516 | 11742 ft | 284 kts | 333° |
| 2026-04-22 19:52 | 48.37931 | 4.21063 | 11552 ft | 285 kts | 334° |
| 2026-04-22 19:52 | 48.39666 | 4.19625 | 11342 ft | 284 kts | 334° |
| 2026-04-22 19:52 | 48.41401 | 4.18194 | 11132 ft | 284 kts | 334° |
| 2026-04-22 19:53 | 48.43113 | 4.16786 | 10914 ft | 283 kts | 334° |
| 2026-04-22 19:53 | 48.44840 | 4.15366 | 10694 ft | 282 kts | 334° |
| 2026-04-22 19:53 | 48.46003 | 4.14409 | 10549 ft | 282 kts | 334° |
| 2026-04-22 19:53 | 48.48286 | 4.12529 | 10252 ft | 282 kts | 334° |
| 2026-04-22 19:54 | 48.50008 | 4.11110 | 10015 ft | 281 kts | 334° |
| 2026-04-22 19:54 | 48.51730 | 4.09690 | 9818 ft | 281 kts | 334° |
| 2026-04-22 19:54 | 48.53440 | 4.08278 | 9590 ft | 280 kts | 334° |
| 2026-04-22 19:54 | 48.55151 | 4.06866 | 9368 ft | 279 kts | 334° |
| 2026-04-22 19:55 | 48.56837 | 4.05469 | 9144 ft | 279 kts | 334° |
| 2026-04-22 19:55 | 48.58543 | 4.04056 | 8894 ft | 279 kts | 334° |
| 2026-04-22 19:55 | 48.60246 | 4.02645 | 8681 ft | 278 kts | 334° |
| 2026-04-22 19:55 | 48.61939 | 4.01240 | 8477 ft | 277 kts | 334° |
| 2026-04-22 19:56 | 48.63610 | 3.99852 | 8270 ft | 277 kts | 334° |
| 2026-04-22 19:56 | 48.65298 | 3.98450 | 8062 ft | 276 kts | 334° |
| 2026-04-22 19:56 | 48.66981 | 3.97051 | 7840 ft | 276 kts | 334° |
| 2026-04-22 19:56 | 48.68667 | 3.95648 | 7613 ft | 276 kts | 334° |
| 2026-04-22 19:57 | 48.70346 | 3.94249 | 7408 ft | 275 kts | 334° |
| 2026-04-22 19:57 | 48.72025 | 3.92851 | 7278 ft | 274 kts | 334° |
| 2026-04-22 19:57 | 48.73695 | 3.91460 | 7249 ft | 273 kts | 334° |
| 2026-04-22 19:57 | 48.75229 | 3.90182 | 7258 ft | 274 kts | 334° |
| 2026-04-22 19:58 | 48.76906 | 3.88782 | 7255 ft | 274 kts | 334° |
| 2026-04-22 19:58 | 48.78576 | 3.87388 | 7256 ft | 274 kts | 334° |
| 2026-04-22 19:58 | 48.80300 | 3.86182 | 7260 ft | 272 kts | 340° |
| 2026-04-22 19:58 | 48.82052 | 3.85064 | 7268 ft | 273 kts | 340° |
| 2026-04-22 19:59 | 48.83781 | 3.83944 | 7259 ft | 272 kts | 339° |
| 2026-04-22 20:00 | 48.94210 | 3.77059 | 7270 ft | 272 kts | 339° |
| 2026-04-22 20:00 | 48.95943 | 3.75907 | 7262 ft | 272 kts | 339° |
| 2026-04-22 20:01 | 48.97682 | 3.74751 | 7272 ft | 273 kts | 339° |
| 2026-04-22 20:01 | 48.99428 | 3.73589 | 7265 ft | 273 kts | 339° |
| 2026-04-22 20:01 | 49.01165 | 3.72432 | 7265 ft | 272 kts | 339° |
| 2026-04-22 20:01 | 49.02906 | 3.71271 | 7260 ft | 272 kts | 339° |
| 2026-04-22 20:02 | 49.04058 | 3.70503 | 7260 ft | 272 kts | 339° |
| 2026-04-22 20:02 | 49.06355 | 3.68969 | 7279 ft | 273 kts | 339° |
| 2026-04-22 20:02 | 49.08087 | 3.67779 | 7262 ft | 273 kts | 334° |
| 2026-04-22 20:02 | 49.09517 | 3.65854 | 7260 ft | 277 kts | 307° |
| 2026-04-22 20:03 | 49.10549 | 3.63338 | 7277 ft | 281 kts | 302° |
| 2026-04-22 20:03 | 49.11205 | 3.61643 | 7261 ft | 280 kts | 302° |
| 2026-04-22 20:03 | 49.12199 | 3.59076 | 7267 ft | 280 kts | 302° |
| 2026-04-22 20:03 | 49.13191 | 3.56504 | 7278 ft | 281 kts | 302° |
| 2026-04-22 20:04 | 49.14505 | 3.53096 | 7271 ft | 281 kts | 302° |
| 2026-04-22 20:04 | 49.15500 | 3.50526 | 7263 ft | 281 kts | 302° |
| 2026-04-22 20:04 | 49.16174 | 3.48791 | 7270 ft | 281 kts | 302° |
| 2026-04-22 20:04 | 49.17162 | 3.46254 | 7270 ft | 281 kts | 302° |
| 2026-04-22 20:05 | 49.18162 | 3.43685 | 7261 ft | 280 kts | 302° |
| 2026-04-22 20:05 | 49.19155 | 3.41121 | 7275 ft | 280 kts | 302° |
| 2026-04-22 20:05 | 49.20151 | 3.38547 | 7275 ft | 280 kts | 302° |
| 2026-04-22 20:05 | 49.21146 | 3.35980 | 7274 ft | 280 kts | 302° |
| 2026-04-22 20:06 | 49.22143 | 3.33414 | 7268 ft | 280 kts | 302° |
| 2026-04-22 20:06 | 49.23130 | 3.30873 | 7278 ft | 280 kts | 302° |
| 2026-04-22 20:06 | 49.24128 | 3.28298 | 7270 ft | 281 kts | 302° |
| 2026-04-22 20:06 | 49.25124 | 3.25730 | 7278 ft | 280 kts | 302° |
| 2026-04-22 20:07 | 49.25649 | 3.24374 | 7281 ft | 281 kts | 302° |
| 2026-04-22 20:07 | 49.26648 | 3.21795 | 7271 ft | 281 kts | 302° |
| 2026-04-22 20:07 | 49.27647 | 3.19217 | 7270 ft | 282 kts | 302° |
| 2026-04-22 20:07 | 49.28589 | 3.16587 | 7271 ft | 282 kts | 297° |
| 2026-04-22 20:08 | 49.29132 | 3.14894 | 7272 ft | 282 kts | 297° |
| 2026-04-22 20:08 | 49.29990 | 3.12186 | 7266 ft | 282 kts | 297° |
| 2026-04-22 20:08 | 49.30839 | 3.09510 | 7273 ft | 282 kts | 297° |
| 2026-04-22 20:08 | 49.31703 | 3.06808 | 7276 ft | 282 kts | 297° |
| 2026-04-22 20:09 | 49.32569 | 3.04100 | 7276 ft | 282 kts | 297° |
| 2026-04-22 20:09 | 49.33433 | 3.01394 | 7273 ft | 282 kts | 297° |
| 2026-04-22 20:09 | 49.34286 | 2.98713 | 7271 ft | 282 kts | 297° |
| 2026-04-22 20:09 | 49.35144 | 2.96010 | 7273 ft | 282 kts | 297° |
| 2026-04-22 20:10 | 49.36010 | 2.93294 | 7270 ft | 283 kts | 297° |
| 2026-04-22 20:10 | 49.36887 | 2.90553 | 7271 ft | 288 kts | 297° |
| 2026-04-22 20:10 | 49.37777 | 2.87756 | 7272 ft | 292 kts | 297° |
| 2026-04-22 20:10 | 49.38660 | 2.84973 | 7275 ft | 293 kts | 297° |
| 2026-04-22 20:11 | 49.39555 | 2.82159 | 7276 ft | 293 kts | 297° |
| 2026-04-22 20:11 | 49.40452 | 2.79335 | 7274 ft | 293 kts | 297° |
| 2026-04-22 20:11 | 49.41346 | 2.76518 | 7277 ft | 293 kts | 297° |
| 2026-04-22 20:11 | 49.42239 | 2.73699 | 7275 ft | 293 kts | 297° |
| 2026-04-22 20:12 | 49.43124 | 2.70906 | 7278 ft | 293 kts | 297° |
| 2026-04-22 20:12 | 49.44020 | 2.68077 | 7276 ft | 293 kts | 297° |
| 2026-04-22 20:12 | 49.44916 | 2.65255 | 7275 ft | 293 kts | 297° |
| 2026-04-22 20:12 | 49.45816 | 2.62435 | 7272 ft | 294 kts | 297° |
| 2026-04-22 20:13 | 49.46716 | 2.59610 | 7278 ft | 294 kts | 297° |
| 2026-04-22 20:13 | 49.47617 | 2.56780 | 7277 ft | 294 kts | 297° |
| 2026-04-22 20:13 | 49.48517 | 2.53952 | 7273 ft | 294 kts | 297° |
| 2026-04-22 20:13 | 49.49410 | 2.51153 | 7273 ft | 294 kts | 297° |
| 2026-04-22 20:14 | 49.50311 | 2.48326 | 7259 ft | 294 kts | 296° |
| 2026-04-22 20:14 | 49.51221 | 2.45497 | 7267 ft | 295 kts | 297° |
| 2026-04-22 20:14 | 49.52135 | 2.42661 | 7263 ft | 294 kts | 297° |
| 2026-04-22 20:14 | 49.53042 | 2.39850 | 6989 ft | 294 kts | 297° |
| 2026-04-22 20:15 | 49.53943 | 2.37060 | 6692 ft | 292 kts | 297° |
| 2026-04-22 20:15 | 49.54850 | 2.34262 | 6350 ft | 292 kts | 297° |
| 2026-04-22 20:15 | 49.55754 | 2.31471 | 6022 ft | 290 kts | 297° |
| 2026-04-22 20:15 | 49.56657 | 2.28684 | 5712 ft | 289 kts | 297° |
| 2026-04-22 20:16 | 49.57554 | 2.25917 | 5396 ft | 287 kts | 297° |
| 2026-04-22 20:16 | 49.58447 | 2.23161 | 5101 ft | 286 kts | 296° |
| 2026-04-22 20:16 | 49.59325 | 2.20469 | 4973 ft | 285 kts | 297° |
| 2026-04-22 20:16 | 49.60224 | 2.17713 | 4970 ft | 288 kts | 296° |
| 2026-04-22 20:17 | 49.61120 | 2.14955 | 4970 ft | 288 kts | 296° |
| 2026-04-22 20:17 | 49.62018 | 2.12191 | 4969 ft | 288 kts | 296° |
| 2026-04-22 20:17 | 49.62916 | 2.09422 | 4967 ft | 288 kts | 296° |
| 2026-04-22 20:17 | 49.63725 | 2.06589 | 4954 ft | 288 kts | 283° |
| 2026-04-22 20:18 | 49.63836 | 2.03626 | 4973 ft | 272 kts | 263° |
| 2026-04-22 20:18 | 49.63653 | 2.00781 | 4880 ft | 262 kts | 262° |
| 2026-04-22 20:18 | 49.63468 | 1.98024 | 4760 ft | 254 kts | 262° |
| 2026-04-22 20:18 | 49.63277 | 1.95324 | 4442 ft | 253 kts | 258° |
| 2026-04-22 20:19 | 49.62632 | 1.92863 | 4144 ft | 246 kts | 229° |
| 2026-04-22 20:19 | 49.61508 | 1.90880 | 3797 ft | 246 kts | 221° |
| 2026-04-22 20:19 | 49.60325 | 1.89019 | 3500 ft | 243 kts | 213° |
| 2026-04-22 20:19 | 49.58846 | 1.87985 | 3171 ft | 229 kts | 180° |
| 2026-04-22 20:20 | 49.57344 | 1.88267 | 3031 ft | 208 kts | 153° |
| 2026-04-22 20:20 | 49.56034 | 1.89040 | 2996 ft | 195 kts | 151° |
| 2026-04-22 20:20 | 49.54899 | 1.89967 | 2948 ft | 175 kts | 130° |
| 2026-04-22 20:20 | 49.54143 | 1.91384 | 2969 ft | 171 kts | 121° |
| 2026-04-22 20:21 | 49.53454 | 1.92851 | 2996 ft | 163 kts | 120° |
| 2026-04-22 20:21 | 49.52839 | 1.94218 | 2802 ft | 151 kts | 119° |
| 2026-04-22 20:21 | 49.52265 | 1.95526 | 2636 ft | 148 kts | 118° |
| 2026-04-22 20:21 | 49.51698 | 1.96838 | 2446 ft | 147 kts | 119° |
| 2026-04-22 20:22 | 49.51132 | 1.98146 | 2255 ft | 146 kts | 119° |
| 2026-04-22 20:22 | 49.50584 | 1.99409 | 2111 ft | 139 kts | 118° |
| 2026-04-22 20:22 | 49.50066 | 2.00593 | 1915 ft | 128 kts | 117° |
| 2026-04-22 20:22 | 49.49584 | 2.01714 | 1735 ft | 124 kts | 118° |
| 2026-04-22 20:23 | 49.49103 | 2.02830 | 1554 ft | 125 kts | 118° |
| 2026-04-22 20:23 | 49.48619 | 2.03951 | 1389 ft | 126 kts | 118° |
| 2026-04-22 20:23 | 49.48135 | 2.05067 | 1211 ft | 128 kts | 119° |
| 2026-04-22 20:23 | 49.47627 | 2.06239 | 1049 ft | 134 kts | 120° |
| 2026-04-22 20:24 | 49.47102 | 2.07457 | 859 ft | 140 kts | 120° |
| 2026-04-22 20:24 | 49.46552 | 2.08711 | 653 ft | 142 kts | 120° |
| 2026-04-22 20:24 | 49.46005 | 2.09986 | 465 ft | 143 kts | 120° |
| 2026-04-22 20:24 | 49.45472 | 2.11214 | 351 ft | 128 kts | 120° |
| 2026-04-22 20:25 | 49.45086 | 2.12098 | 336 ft | 68 kts | 123° |
| 2026-04-22 20:25 | 49.44928 | 2.12475 | 327 ft | 9 kts | 146° |
| 2026-04-22 20:25 | 49.44899 | 2.12472 | 325 ft | 2 kts | 220° |
| 2026-04-22 20:25 | 49.44895 | 2.12437 | 327 ft | 7 kts | 275° |
| 2026-04-22 20:26 | 49.44939 | 2.12363 | 329 ft | 15 kts | 324° |
| 2026-04-22 20:26 | 49.45040 | 2.12196 | 333 ft | 27 kts | 306° |
| 2026-04-22 20:26 | 49.45156 | 2.11939 | 339 ft | 30 kts | 304° |
| 2026-04-22 20:26 | 49.45265 | 2.11691 | 337 ft | 26 kts | 303° |
| 2026-04-22 20:27 | 49.45370 | 2.11454 | 337 ft | 28 kts | 304° |
| 2026-04-22 20:27 | 49.45478 | 2.11348 | 353 ft | 17 kts | 18° |
| 2026-04-22 20:27 | 49.45574 | 2.11456 | 357 ft | 17 kts | 43° |
| 2026-04-22 20:27 | 49.45657 | 2.11574 | 351 ft | 8 kts | 43° |
| 2026-04-22 20:28 | 49.45710 | 2.11623 | 351 ft | 10 kts | 8° |
| 2026-04-22 20:28 | 49.45754 | 2.11582 | 349 ft | 7 kts | 304° |
| 2026-04-22 20:28 | 49.45795 | 2.11511 | 352 ft | 10 kts | 330° |
| 2026-04-22 20:28 | 49.45861 | 2.11536 | 360 ft | 6 kts | 38° |
| 2026-04-22 20:29 | 49.45887 | 2.11539 | 356 ft | 3 kts | 333° |
| 2026-04-22 20:29 | 49.45901 | 2.11517 | 358 ft | 5 kts | 311° |
| 2026-04-22 20:29 | 49.45923 | 2.11478 | 354 ft | 1 kts | 311° |
| 2026-04-22 20:29 | 49.45924 | 2.11477 | 354 ft | 0 kts | 311° |